MMTJ/TIJ METAR and TAF weather

Enter ICAO airport designator
Station Type Date Time Source
MMTJ METAR 2020/04/02 02:42 UTC NOAA

MMTJ 020242Z 18007KT 7SM SKC 14/11 A2991 RMK SLP124 55006 966 HZY ST 3RD QUAD


Station Type Date Time Source
MMTJ Decoded METAR 2020/04/02 02:42 UTC NOAA

Tijuana International Airport , Mexico (MMTJ) 32-33N 116-58W
Apr 01, 2020 - 10:42 PM EDT / 2020.04.02 0242 UTC
Wind: from the S (180 degrees) at 8 MPH (7 KT):0
Visibility: 7 mile(s):0
Sky conditions: clear
Temperature: 57 F (14 C)
Dew Point: 51 F (11 C)
Relative Humidity: 82%
Pressure (altimeter): 29.91 in. Hg (1012 hPa)
Pressure tendency: 0.02 inches (0.6 hPa) lower than three hours ago
ob: MMTJ 020242Z 18007KT 7SM SKC 14/11 A2991 RMK SLP124 55006 966 HZY ST 3RD QUAD
cycle: 2

Station Type Date Time Source
MMTJ TAF 2020/04/01 21:12 UTC NOAA

TAF
AMD MMTJ 012105Z 0121/0224 27010KT 5SM HZ SKC TX22/0122Z TN14/0212Z
FM020300 00000KT 4SM HZ BKN015
FM020900 00000KT 5SM HZ OVC015
TEMPO 0210/0214 2SM BR BKN006
FM021900 28010KT P6SM SCT030 BKN250

Example: see airport list